Stella Ada — 9V9082 — position and weather

sailwx.info

Track history (hours):
 
Tides and Currents Weather Stations Pressure Air Temp Water Temp Dewpoint Dewpoint Depression Visibility Wind Speed Wind Dir Waves Ship Positions

Stella Ada

Last reported at 2017-Apr-04 08:02 UTC. Time now 2017-Apr-25 06:44 UTC.
Position N 33°49' E 123°07'.
Warning: this ship's position is 20 days out of date.

Length 296 m; draft 14.9 m.

Type: Cargo ship. MMSI: 566089000.

Date/timePositionNaut miles runAvg speedWind from/ knotsBaromVisibWave heightAir tempDewpointWater temp
2017-Apr-04 08:02N 33°49' E 123°07'213.6
2017-Apr-04 07:56N 33°47' E 123°08'613.8
2017-Apr-04 07:30N 33°43' E 123°12'713.7
2017-Apr-04 07:01N 33°38' E 123°18'913.7
2017-Apr-04 06:22N 33°31' E 123°24'513.7
2017-Apr-04 06:00N 33°27' E 123°28'713.5
2017-Apr-04 05:30N 33°21' E 123°33'713.4
2017-Apr-04 05:00N 33°16' E 123°38'613.0
2017-Apr-04 04:30N 33°11' E 123°42'613.0
2017-Apr-04 04:01N 33°06' E 123°47'713.0
2017-Apr-04 03:30N 33°01' E 123°53'713.1
2017-Apr-04 03:00N 32°57' E 123°59'713.1
2017-Apr-04 02:30N 32°53' E 124°04'612.9
2017-Apr-04 02:00N 32°48' E 124°09'712.9
2017-Apr-04 01:30N 32°42' E 124°13'1613.0
2017-Apr-04 00:17N 32°29' E 124°23'613.0
2017-Apr-03 23:51N 32°24' E 124°27'913.5
2017-Apr-03 23:12N 32°17' E 124°33'413.6
2017-Apr-03 22:56N 32°15' E 124°36'613.7
2017-Apr-03 22:30N 32°10' E 124°41'713.8
2017-Apr-03 22:00N 32°05' E 124°46'814.1
2017-Apr-03 21:28N 31°59' E 124°52'714.2
2017-Apr-03 21:00N 31°54' E 124°57'914.2
2017-Apr-03 20:22N 31°47' E 125°03'514.6
2017-Apr-03 20:00N 31°42' E 125°06'7814.2
2017-Apr-03 14:29N 30°40' E 126°03'1313.3
2017-Apr-03 13:29N 30°30' E 126°12'  
Track history (hours):
 
Tides and Currents Weather Stations Pressure Air Temp Water Temp Dewpoint Dewpoint Depression Visibility Wind Speed Wind Dir Waves Ship Positions

Stella Ada

Last reported at 2017-Apr-04 08:02 UTC. Time now 2017-Apr-25 06:44 UTC.
Position N 33°49' E 123°07'.
Warning: this ship's position is 20 days out of date.

Length 296 m; draft 14.9 m.

Type: Cargo ship. MMSI: 566089000.

Date/timePositionNaut miles runAvg speedWind from/ knotsBaromVisibWave heightAir tempDewpointWater temp
2017-Apr-04 08:02N 33°49' E 123°07'213.6
2017-Apr-04 07:56N 33°47' E 123°08'613.8
2017-Apr-04 07:30N 33°43' E 123°12'713.7
2017-Apr-04 07:01N 33°38' E 123°18'913.7
2017-Apr-04 06:22N 33°31' E 123°24'513.7
2017-Apr-04 06:00N 33°27' E 123°28'713.5
2017-Apr-04 05:30N 33°21' E 123°33'713.4
2017-Apr-04 05:00N 33°16' E 123°38'613.0
2017-Apr-04 04:30N 33°11' E 123°42'613.0
2017-Apr-04 04:01N 33°06' E 123°47'713.0
2017-Apr-04 03:30N 33°01' E 123°53'713.1
2017-Apr-04 03:00N 32°57' E 123°59'713.1
2017-Apr-04 02:30N 32°53' E 124°04'612.9
2017-Apr-04 02:00N 32°48' E 124°09'712.9
2017-Apr-04 01:30N 32°42' E 124°13'1613.0
2017-Apr-04 00:17N 32°29' E 124°23'613.0
2017-Apr-03 23:51N 32°24' E 124°27'913.5
2017-Apr-03 23:12N 32°17' E 124°33'413.6
2017-Apr-03 22:56N 32°15' E 124°36'613.7
2017-Apr-03 22:30N 32°10' E 124°41'713.8
2017-Apr-03 22:00N 32°05' E 124°46'814.1
2017-Apr-03 21:28N 31°59' E 124°52'714.2
2017-Apr-03 21:00N 31°54' E 124°57'914.2
2017-Apr-03 20:22N 31°47' E 125°03'514.6
2017-Apr-03 20:00N 31°42' E 125°06'7814.2
2017-Apr-03 14:29N 30°40' E 126°03'1313.3
2017-Apr-03 13:29N 30°30' E 126°12'  

Dump ship's entire track history